sensor_id;sensor_type;location;lat;lon;timestamp;pressure;altitude;pressure_sealevel;temperature
20490;BMP280;10403;54.092;12.122;2022-08-21T00:00:28;101724.25;;;21.14
20490;BMP280;10403;54.092;12.122;2022-08-21T00:03:05;101713.72;;;21.11
20490;BMP280;10403;54.092;12.122;2022-08-21T00:05:38;101712.00;;;21.10
20490;BMP280;10403;54.092;12.122;2022-08-21T00:08:06;101709.38;;;21.08
20490;BMP280;10403;54.092;12.122;2022-08-21T00:10:33;101699.88;;;21.02
20490;BMP280;10403;54.092;12.122;2022-08-21T00:13:04;101707.72;;;21.05
20490;BMP280;10403;54.092;12.122;2022-08-21T00:15:34;101696.41;;;21.00
20490;BMP280;10403;54.092;12.122;2022-08-21T00:18:03;101705.22;;;21.02
20490;BMP280;10403;54.092;12.122;2022-08-21T00:20:31;101675.91;;;20.82
20490;BMP280;10403;54.092;12.122;2022-08-21T00:22:59;101710.72;;;20.98
20490;BMP280;10403;54.092;12.122;2022-08-21T00:25:27;101708.09;;;20.96
20490;BMP280;10403;54.092;12.122;2022-08-21T00:27:55;101703.88;;;20.92
20490;BMP280;10403;54.092;12.122;2022-08-21T00:30:25;101703.00;;;20.92
20490;BMP280;10403;54.092;12.122;2022-08-21T00:32:55;101704.66;;;20.94
20490;BMP280;10403;54.092;12.122;2022-08-21T00:35:36;101705.59;;;20.93
20490;BMP280;10403;54.092;12.122;2022-08-21T00:38:07;101705.59;;;20.93
20490;BMP280;10403;54.092;12.122;2022-08-21T00:40:44;101690.94;;;20.83
20490;BMP280;10403;54.092;12.122;2022-08-21T00:43:17;101704.19;;;20.85
20490;BMP280;10403;54.092;12.122;2022-08-21T00:45:45;101707.56;;;20.88
20490;BMP280;10403;54.092;12.122;2022-08-21T00:48:13;101704.25;;;20.83
20490;BMP280;10403;54.092;12.122;2022-08-21T00:50:47;101695.47;;;20.81
20490;BMP280;10403;54.092;12.122;2022-08-21T00:53:17;101684.22;;;20.75
20490;BMP280;10403;54.092;12.122;2022-08-21T00:55:45;101701.59;;;20.83
20490;BMP280;10403;54.092;12.122;2022-08-21T00:58:14;101701.59;;;20.83
20490;BMP280;10403;54.092;12.122;2022-08-21T01:00:47;101691.34;;;20.74
20490;BMP280;10403;54.092;12.122;2022-08-21T01:03:20;101695.56;;;20.78
20490;BMP280;10403;54.092;12.122;2022-08-21T01:05:51;101690.41;;;20.75
20490;BMP280;10403;54.092;12.122;2022-08-21T01:08:20;101690.53;;;20.72
20490;BMP280;10403;54.092;12.122;2022-08-21T01:10:48;101688.84;;;20.69
20490;BMP280;10403;54.092;12.122;2022-08-21T01:13:22;101685.31;;;20.69
20490;BMP280;10403;54.092;12.122;2022-08-21T01:15:54;101699.31;;;20.74
20490;BMP280;10403;54.092;12.122;2022-08-21T01:18:24;101694.97;;;20.72
20490;BMP280;10403;54.092;12.122;2022-08-21T01:21:21;101706.53;;;20.71
20490;BMP280;10403;54.092;12.122;2022-08-21T01:23:56;101709.31;;;20.67
20490;BMP280;10403;54.092;12.122;2022-08-21T01:26:29;101698.94;;;20.61
20490;BMP280;10403;54.092;12.122;2022-08-21T01:29:28;101698.81;;;20.64
20490;BMP280;10403;54.092;12.122;2022-08-21T01:31:59;101695.31;;;20.64
20490;BMP280;10403;54.092;12.122;2022-08-21T01:34:30;101691.28;;;20.54
20490;BMP280;10403;54.092;12.122;2022-08-21T01:36:57;101698.06;;;20.61
20490;BMP280;10403;54.092;12.122;2022-08-21T01:39:24;101696.34;;;20.60
20490;BMP280;10403;54.092;12.122;2022-08-21T01:41:51;101662.81;;;20.34
20490;BMP280;10403;54.092;12.122;2022-08-21T01:44:22;101690.47;;;20.52
20490;BMP280;10403;54.092;12.122;2022-08-21T01:46:51;101715.00;;;20.58
20490;BMP280;10403;54.092;12.122;2022-08-21T01:49:19;101686.41;;;20.43
20490;BMP280;10403;54.092;12.122;2022-08-21T01:51:47;101713.34;;;20.56
20490;BMP280;10403;54.092;12.122;2022-08-21T01:54:14;101683.19;;;20.35
20490;BMP280;10403;54.092;12.122;2022-08-21T01:56:48;101714.41;;;20.52
20490;BMP280;10403;54.092;12.122;2022-08-21T01:59:16;101707.47;;;20.48
20490;BMP280;10403;54.092;12.122;2022-08-21T02:01:43;101711.06;;;20.47
20490;BMP280;10403;54.092;12.122;2022-08-21T02:04:11;101711.06;;;20.47
20490;BMP280;10403;54.092;12.122;2022-08-21T02:06:38;101714.66;;;20.46
20490;BMP280;10403;54.092;12.122;2022-08-21T02:09:09;101708.53;;;20.44
20490;BMP280;10403;54.092;12.122;2022-08-21T02:11:37;101709.44;;;20.43
20490;BMP280;10403;54.092;12.122;2022-08-21T02:14:13;101706.22;;;20.35
20490;BMP280;10403;54.092;12.122;2022-08-21T02:16:57;101702.66;;;20.34
20490;BMP280;10403;54.092;12.122;2022-08-21T02:19:37;101715.06;;;20.35
20490;BMP280;10403;54.092;12.122;2022-08-21T02:22:09;101709.84;;;20.32
20490;BMP280;10403;54.092;12.122;2022-08-21T02:24:38;101720.53;;;20.30
20490;BMP280;10403;54.092;12.122;2022-08-21T02:27:24;101706.41;;;20.28
20490;BMP280;10403;54.092;12.122;2022-08-21T02:29:56;101718.69;;;20.32
20490;BMP280;10403;54.092;12.122;2022-08-21T02:32:24;101706.56;;;20.25
20490;BMP280;10403;54.092;12.122;2022-08-21T02:34:53;101692.72;;;20.17
20490;BMP280;10403;54.092;12.122;2022-08-21T02:37:20;101698.69;;;20.22
20490;BMP280;10403;54.092;12.122;2022-08-21T02:39:47;101690.97;;;20.16
20490;BMP280;10403;54.092;12.122;2022-08-21T02:42:15;101702.97;;;20.26
20490;BMP280;10403;54.092;12.122;2022-08-21T02:44:42;101686.44;;;20.18
20490;BMP280;10403;54.092;12.122;2022-08-21T02:47:09;101704.94;;;20.21
20490;BMP280;10403;54.092;12.122;2022-08-21T02:49:36;101718.06;;;20.26
20490;BMP280;10403;54.092;12.122;2022-08-21T02:52:03;101685.72;;;20.15
20490;BMP280;10403;54.092;12.122;2022-08-21T02:54:32;101708.41;;;20.23
20490;BMP280;10403;54.092;12.122;2022-08-21T02:56:59;101698.88;;;20.18
20490;BMP280;10403;54.092;12.122;2022-08-21T02:59:26;101695.38;;;20.17
20490;BMP280;10403;54.092;12.122;2022-08-21T03:01:53;101696.41;;;20.13
20490;BMP280;10403;54.092;12.122;2022-08-21T03:04:22;101708.66;;;20.17
20490;BMP280;10403;54.092;12.122;2022-08-21T03:06:49;101694.66;;;20.12
20490;BMP280;10403;54.092;12.122;2022-08-21T03:09:16;101702.53;;;20.15
20490;BMP280;10403;54.092;12.122;2022-08-21T03:11:43;101686.06;;;20.06
20490;BMP280;10403;54.092;12.122;2022-08-21T03:14:10;101694.66;;;20.12
20490;BMP280;10403;54.092;12.122;2022-08-21T03:16:37;101691.19;;;20.10
20490;BMP280;10403;54.092;12.122;2022-08-21T03:19:04;101685.25;;;20.04
20490;BMP280;10403;54.092;12.122;2022-08-21T03:21:31;101704.53;;;20.09
20490;BMP280;10403;54.092;12.122;2022-08-21T03:23:58;101702.06;;;20.04
20490;BMP280;10403;54.092;12.122;2022-08-21T03:26:30;101698.59;;;20.02
20490;BMP280;10403;54.092;12.122;2022-08-21T03:28:58;101684.84;;;19.91
20490;BMP280;10403;54.092;12.122;2022-08-21T03:31:25;101700.56;;;19.97
20490;BMP280;10403;54.092;12.122;2022-08-21T03:33:57;101710.34;;;19.97
20490;BMP280;10403;54.092;12.122;2022-08-21T03:36:25;101714.63;;;19.99
20490;BMP280;10403;54.092;12.122;2022-08-21T03:38:53;101705.19;;;19.92
20490;BMP280;10403;54.092;12.122;2022-08-21T03:41:20;101709.81;;;19.87
20490;BMP280;10403;54.092;12.122;2022-08-21T03:43:47;101710.50;;;19.92
20490;BMP280;10403;54.092;12.122;2022-08-21T03:46:14;101723.72;;;19.93
20490;BMP280;10403;54.092;12.122;2022-08-21T03:48:41;101716.97;;;19.85
20490;BMP280;10403;54.092;12.122;2022-08-21T03:51:09;101701.25;;;19.79
20490;BMP280;10403;54.092;12.122;2022-08-21T03:53:36;101723.09;;;19.87
20490;BMP280;10403;54.092;12.122;2022-08-21T03:56:05;101715.34;;;19.81
20490;BMP280;10403;54.092;12.122;2022-08-21T03:58:32;101728.41;;;19.87
20490;BMP280;10403;54.092;12.122;2022-08-21T04:01:01;101729.44;;;19.83
20490;BMP280;10403;54.092;12.122;2022-08-21T04:03:29;101708.63;;;19.71
20490;BMP280;10403;54.092;12.122;2022-08-21T04:05:56;101727.88;;;19.77
20490;BMP280;10403;54.092;12.122;2022-08-21T04:08:23;101730.41;;;19.80
20490;BMP280;10403;54.092;12.122;2022-08-21T04:10:55;101736.47;;;19.84
20490;BMP280;10403;54.092;12.122;2022-08-21T04:13:23;101736.47;;;19.84
20490;BMP280;10403;54.092;12.122;2022-08-21T04:15:50;101741.78;;;19.84
20490;BMP280;10403;54.092;12.122;2022-08-21T04:18:18;101737.34;;;19.84
20490;BMP280;10403;54.092;12.122;2022-08-21T04:20:49;101734.97;;;19.77
20490;BMP280;10403;54.092;12.122;2022-08-21T04:23:18;101737.44;;;19.81
20490;BMP280;10403;54.092;12.122;2022-08-21T04:25:52;101742.59;;;19.86
20490;BMP280;10403;54.092;12.122;2022-08-21T04:28:22;101738.16;;;19.86
20490;BMP280;10403;54.092;12.122;2022-08-21T04:30:55;101740.81;;;19.86
20490;BMP280;10403;54.092;12.122;2022-08-21T04:33:23;101684.50;;;19.53
20490;BMP280;10403;54.092;12.122;2022-08-21T04:35:51;101736.38;;;19.87
20490;BMP280;10403;54.092;12.122;2022-08-21T04:38:19;101738.94;;;19.88
20490;BMP280;10403;54.092;12.122;2022-08-21T04:40:47;101738.03;;;19.89
20490;BMP280;10403;54.092;12.122;2022-08-21T04:43:15;101743.19;;;19.94
20490;BMP280;10403;54.092;12.122;2022-08-21T04:45:46;101737.88;;;19.94
20490;BMP280;10403;54.092;12.122;2022-08-21T04:48:19;101748.25;;;20.00
20490;BMP280;10403;54.092;12.122;2022-08-21T04:51:03;101748.19;;;20.02
20490;BMP280;10403;54.092;12.122;2022-08-21T04:53:47;101741.34;;;19.96
20490;BMP280;10403;54.092;12.122;2022-08-21T04:56:30;101753.34;;;20.06
20490;BMP280;10403;54.092;12.122;2022-08-21T04:59:02;101719.44;;;19.89
20490;BMP280;10403;54.092;12.122;2022-08-21T05:01:35;101740.94;;;20.07
20490;BMP280;10403;54.092;12.122;2022-08-21T05:04:05;101756.47;;;20.17
20490;BMP280;10403;54.092;12.122;2022-08-21T05:06:39;101737.94;;;20.16
20490;BMP280;10403;54.092;12.122;2022-08-21T05:09:09;101755.41;;;20.21
20490;BMP280;10403;54.092;12.122;2022-08-21T05:11:36;101743.81;;;20.24
20490;BMP280;10403;54.092;12.122;2022-08-21T05:14:04;101742.84;;;20.26
20490;BMP280;10403;54.092;12.122;2022-08-21T05:16:31;101731.41;;;20.24
20490;BMP280;10403;54.092;12.122;2022-08-21T05:19:07;101747.84;;;20.36
20490;BMP280;10403;54.092;12.122;2022-08-21T05:21:38;101744.94;;;20.42
20490;BMP280;10403;54.092;12.122;2022-08-21T05:24:06;101757.03;;;20.49
20490;BMP280;10403;54.092;12.122;2022-08-21T05:26:33;101744.81;;;20.45
20490;BMP280;10403;54.092;12.122;2022-08-21T05:29:15;101757.81;;;20.52
20490;BMP280;10403;54.092;12.122;2022-08-21T05:31:44;101735.91;;;20.46
20490;BMP280;10403;54.092;12.122;2022-08-21T05:34:14;101751.50;;;20.55
20490;BMP280;10403;54.092;12.122;2022-08-21T05:36:43;101749.78;;;20.54
20490;BMP280;10403;54.092;12.122;2022-08-21T05:39:12;101744.66;;;20.48
20490;BMP280;10403;54.092;12.122;2022-08-21T05:41:40;101759.47;;;20.55
20490;BMP280;10403;54.092;12.122;2022-08-21T05:44:07;101746.56;;;20.46
20490;BMP280;10403;54.092;12.122;2022-08-21T05:46:37;101762.88;;;20.58
20490;BMP280;10403;54.092;12.122;2022-08-21T05:49:05;101763.69;;;20.60
20490;BMP280;10403;54.092;12.122;2022-08-21T05:51:32;101753.25;;;20.56
20490;BMP280;10403;54.092;12.122;2022-08-21T05:53:59;101757.38;;;20.63
20490;BMP280;10403;54.092;12.122;2022-08-21T05:56:26;101763.50;;;20.65
20490;BMP280;10403;54.092;12.122;2022-08-21T05:58:54;101758.03;;;20.68
20490;BMP280;10403;54.092;12.122;2022-08-21T06:01:22;101725.34;;;20.44
20490;BMP280;10403;54.092;12.122;2022-08-21T06:03:49;101757.94;;;20.71
20490;BMP280;10403;54.092;12.122;2022-08-21T06:06:17;101752.72;;;20.68
20490;BMP280;10403;54.092;12.122;2022-08-21T06:08:45;101754.22;;;20.75
20490;BMP280;10403;54.092;12.122;2022-08-21T06:11:12;101731.50;;;20.66
20490;BMP280;10403;54.092;12.122;2022-08-21T06:13:39;101759.84;;;20.89
20490;BMP280;10403;54.092;12.122;2022-08-21T06:16:14;101746.66;;;20.86
20490;BMP280;10403;54.092;12.122;2022-08-21T06:18:44;101757.78;;;20.96
20490;BMP280;10403;54.092;12.122;2022-08-21T06:21:12;101766.84;;;20.92
20490;BMP280;10403;54.092;12.122;2022-08-21T06:23:41;101761.19;;;20.99
20490;BMP280;10403;54.092;12.122;2022-08-21T06:26:11;101755.50;;;21.09
20490;BMP280;10403;54.092;12.122;2022-08-21T06:28:41;101744.72;;;21.12
20490;BMP280;10403;54.092;12.122;2022-08-21T06:31:19;101758.09;;;21.32
20490;BMP280;10403;54.092;12.122;2022-08-21T06:33:47;101757.63;;;21.42
20490;BMP280;10403;54.092;12.122;2022-08-21T06:36:14;101738.13;;;21.42
20490;BMP280;10403;54.092;12.122;2022-08-21T06:38:42;101735.19;;;21.48
20490;BMP280;10403;54.092;12.122;2022-08-21T06:41:18;101751.91;;;21.72
20490;BMP280;10403;54.092;12.122;2022-08-21T06:43:50;101746.28;;;21.78
20490;BMP280;10403;54.092;12.122;2022-08-21T06:46:17;101750.34;;;21.87
20490;BMP280;10403;54.092;12.122;2022-08-21T06:48:44;101735.16;;;21.89
20490;BMP280;10403;54.092;12.122;2022-08-21T06:51:11;101758.31;;;22.07
20490;BMP280;10403;54.092;12.122;2022-08-21T06:53:38;101746.09;;;22.03
20490;BMP280;10403;54.092;12.122;2022-08-21T06:56:05;101756.03;;;22.18
20490;BMP280;10403;54.092;12.122;2022-08-21T06:58:32;101752.94;;;22.27
20490;BMP280;10403;54.092;12.122;2022-08-21T07:01:00;101751.06;;;22.29
20490;BMP280;10403;54.092;12.122;2022-08-21T07:03:39;101754.16;;;22.39
20490;BMP280;10403;54.092;12.122;2022-08-21T07:06:10;101753.94;;;22.43
20490;BMP280;10403;54.092;12.122;2022-08-21T07:08:38;101751.94;;;22.48
20490;BMP280;10403;54.092;12.122;2022-08-21T07:11:20;101748.25;;;22.51
20490;BMP280;10403;54.092;12.122;2022-08-21T07:13:50;101751.78;;;22.51
20490;BMP280;10403;54.092;12.122;2022-08-21T07:16:20;101744.94;;;22.46
20490;BMP280;10403;54.092;12.122;2022-08-21T07:18:48;101750.06;;;22.50
20490;BMP280;10403;54.092;12.122;2022-08-21T07:21:16;101746.53;;;22.50
20490;BMP280;10403;54.092;12.122;2022-08-21T07:23:50;101742.94;;;22.51
20490;BMP280;10403;54.092;12.122;2022-08-21T07:26:22;101748.94;;;22.55
20490;BMP280;10403;54.092;12.122;2022-08-21T07:28:50;101734.06;;;22.50
20490;BMP280;10403;54.092;12.122;2022-08-21T07:31:20;101739.94;;;22.57
20490;BMP280;10403;54.092;12.122;2022-08-21T07:33:48;101731.16;;;22.55
20490;BMP280;10403;54.092;12.122;2022-08-21T07:36:15;101734.25;;;22.65
20490;BMP280;10403;54.092;12.122;2022-08-21T07:38:43;101727.09;;;22.65
20490;BMP280;10403;54.092;12.122;2022-08-21T07:41:20;101734.66;;;22.74
20490;BMP280;10403;54.092;12.122;2022-08-21T07:43:48;101728.69;;;22.69
20490;BMP280;10403;54.092;12.122;2022-08-21T07:46:18;101731.00;;;22.77
20490;BMP280;10403;54.092;12.122;2022-08-21T07:48:46;101714.84;;;22.80
20490;BMP280;10403;54.092;12.122;2022-08-21T07:51:16;101701.53;;;22.80
20490;BMP280;10403;54.092;12.122;2022-08-21T07:53:50;101727.50;;;22.94
20490;BMP280;10403;54.092;12.122;2022-08-21T07:56:19;101728.34;;;22.94
20490;BMP280;10403;54.092;12.122;2022-08-21T07:58:46;101730.09;;;22.95
20490;BMP280;10403;54.092;12.122;2022-08-21T08:01:14;101706.16;;;22.94
20490;BMP280;10403;54.092;12.122;2022-08-21T08:03:41;101723.81;;;23.13
20490;BMP280;10403;54.092;12.122;2022-08-21T08:06:09;101725.72;;;23.29
20490;BMP280;10403;54.092;12.122;2022-08-21T08:08:42;101727.91;;;23.38
20490;BMP280;10403;54.092;12.122;2022-08-21T08:11:11;101727.72;;;23.41
20490;BMP280;10403;54.092;12.122;2022-08-21T08:13:46;101735.84;;;23.39
20490;BMP280;10403;54.092;12.122;2022-08-21T08:16:15;101727.91;;;23.38
20490;BMP280;10403;54.092;12.122;2022-08-21T08:18:44;101726.19;;;23.37
20490;BMP280;10403;54.092;12.122;2022-08-21T08:21:13;101730.25;;;23.44
20490;BMP280;10403;54.092;12.122;2022-08-21T08:23:40;101721.09;;;23.49
20490;BMP280;10403;54.092;12.122;2022-08-21T08:26:07;101721.63;;;23.56
20490;BMP280;10403;54.092;12.122;2022-08-21T08:28:34;101726.72;;;23.60
20490;BMP280;10403;54.092;12.122;2022-08-21T08:31:02;101728.31;;;23.65
20490;BMP280;10403;54.092;12.122;2022-08-21T08:33:30;101705.47;;;23.59
20490;BMP280;10403;54.092;12.122;2022-08-21T08:35:57;101726.00;;;23.74
20490;BMP280;10403;54.092;12.122;2022-08-21T08:38:29;101711.19;;;23.69
20490;BMP280;10403;54.092;12.122;2022-08-21T08:41:20;101726.78;;;23.76
20490;BMP280;10403;54.092;12.122;2022-08-21T08:43:55;101722.88;;;23.66
20490;BMP280;10403;54.092;12.122;2022-08-21T08:46:39;101715.09;;;23.61
20490;BMP280;10403;54.092;12.122;2022-08-21T08:49:19;101717.53;;;23.66
20490;BMP280;10403;54.092;12.122;2022-08-21T08:52:00;101709.59;;;23.65
20490;BMP280;10403;54.092;12.122;2022-08-21T08:54:45;101711.53;;;23.78
20490;BMP280;10403;54.092;12.122;2022-08-21T08:57:20;101711.69;;;23.75
20490;BMP280;10403;54.092;12.122;2022-08-21T08:59:55;101699.63;;;23.68
20490;BMP280;10403;54.092;12.122;2022-08-21T09:02:23;101719.06;;;23.70
20490;BMP280;10403;54.092;12.122;2022-08-21T09:04:53;101712.19;;;23.66
20490;BMP280;10403;54.092;12.122;2022-08-21T09:10:23;101701.44;;;23.50
20490;BMP280;10403;54.092;12.122;2022-08-21T09:22:19;101705.66;;;23.72
20490;BMP280;10403;54.092;12.122;2022-08-21T09:27:34;101712.75;;;23.55
20490;BMP280;10403;54.092;12.122;2022-08-21T09:30:06;101710.88;;;23.57
20490;BMP280;10403;54.092;12.122;2022-08-21T09:32:36;101708.13;;;23.59
20490;BMP280;10403;54.092;12.122;2022-08-21T09:35:13;101705.97;;;23.66
20490;BMP280;10403;54.092;12.122;2022-08-21T09:40:44;101687.06;;;23.86
20490;BMP280;10403;54.092;12.122;2022-08-21T09:45:41;101683.88;;;23.95
20490;BMP280;10403;54.092;12.122;2022-08-21T09:48:21;101697.97;;;23.98
20490;BMP280;10403;54.092;12.122;2022-08-21T09:51:07;101693.38;;;24.01
20490;BMP280;10403;54.092;12.122;2022-08-21T09:53:43;101690.19;;;24.10
20490;BMP280;10403;54.092;12.122;2022-08-21T09:56:25;101650.34;;;23.89
20490;BMP280;10403;54.092;12.122;2022-08-21T09:59:32;101695.22;;;24.16
20490;BMP280;10403;54.092;12.122;2022-08-21T10:02:28;101706.19;;;24.27
20490;BMP280;10403;54.092;12.122;2022-08-21T10:05:22;101691.41;;;24.20
20490;BMP280;10403;54.092;12.122;2022-08-21T10:07:51;101695.44;;;24.28
20490;BMP280;10403;54.092;12.122;2022-08-21T10:10:25;101698.34;;;24.40
20490;BMP280;10403;54.092;12.122;2022-08-21T10:16:16;101695.28;;;24.61
20490;BMP280;10403;54.092;12.122;2022-08-21T10:30:50;101676.56;;;24.61
20490;BMP280;10403;54.092;12.122;2022-08-21T10:36:19;101681.06;;;24.61
20490;BMP280;10403;54.092;12.122;2022-08-21T10:45:14;101678.69;;;24.70
20490;BMP280;10403;54.092;12.122;2022-08-21T10:47:49;101670.69;;;24.70
20490;BMP280;10403;54.092;12.122;2022-08-21T10:55:57;101671.19;;;24.77
20490;BMP280;10403;54.092;12.122;2022-08-21T10:59:18;101674.81;;;24.92
20490;BMP280;10403;54.092;12.122;2022-08-21T11:02:17;101677.88;;;25.00
20490;BMP280;10403;54.092;12.122;2022-08-21T11:04:59;101684.38;;;24.96
20490;BMP280;10403;54.092;12.122;2022-08-21T11:07:45;101672.63;;;24.83
20490;BMP280;10403;54.092;12.122;2022-08-21T11:10:29;101679.31;;;24.76
20490;BMP280;10403;54.092;12.122;2022-08-21T11:13:08;101677.81;;;24.86
20490;BMP280;10403;54.092;12.122;2022-08-21T11:15:56;101677.09;;;24.98
20490;BMP280;10403;54.092;12.122;2022-08-21T11:19:17;101668.94;;;25.15
20490;BMP280;10403;54.092;12.122;2022-08-21T11:22:06;101668.00;;;25.30
20490;BMP280;10403;54.092;12.122;2022-08-21T11:25:04;101668.59;;;25.35
20490;BMP280;10403;54.092;12.122;2022-08-21T11:27:58;101660.66;;;25.34
20490;BMP280;10403;54.092;12.122;2022-08-21T11:37:11;101672.81;;;25.54
20490;BMP280;10403;54.092;12.122;2022-08-21T11:40:04;101657.59;;;25.54
20490;BMP280;10403;54.092;12.122;2022-08-21T11:45:18;101659.66;;;25.65
20490;BMP280;10403;54.092;12.122;2022-08-21T11:48:03;101665.19;;;25.62
20490;BMP280;10403;54.092;12.122;2022-08-21T11:50:37;101653.09;;;25.55
20490;BMP280;10403;54.092;12.122;2022-08-21T11:53:24;101651.06;;;25.58
20490;BMP280;10403;54.092;12.122;2022-08-21T11:55:56;101638.75;;;25.56
20490;BMP280;10403;54.092;12.122;2022-08-21T11:58:38;101635.88;;;25.59
20490;BMP280;10403;54.092;12.122;2022-08-21T12:01:17;101643.34;;;25.68
20490;BMP280;10403;54.092;12.122;2022-08-21T12:04:02;101643.34;;;25.68
20490;BMP280;10403;54.092;12.122;2022-08-21T12:06:36;101649.31;;;25.73
20490;BMP280;10403;54.092;12.122;2022-08-21T12:09:08;101645.47;;;25.63
20490;BMP280;10403;54.092;12.122;2022-08-21T12:12:03;101653.88;;;25.71
20490;BMP280;10403;54.092;12.122;2022-08-21T12:14:50;101655.22;;;25.78
20490;BMP280;10403;54.092;12.122;2022-08-21T12:17:24;101647.75;;;25.83
20490;BMP280;10403;54.092;12.122;2022-08-21T12:20:24;101641.63;;;25.81
20490;BMP280;10403;54.092;12.122;2022-08-21T12:28:40;101648.94;;;25.65
20490;BMP280;10403;54.092;12.122;2022-08-21T12:31:27;101659.75;;;25.63
20490;BMP280;10403;54.092;12.122;2022-08-21T12:34:05;101650.06;;;25.61
20490;BMP280;10403;54.092;12.122;2022-08-21T12:36:54;101647.38;;;25.61
20490;BMP280;10403;54.092;12.122;2022-08-21T12:39:28;101651.38;;;25.54
20490;BMP280;10403;54.092;12.122;2022-08-21T12:44:50;101651.09;;;25.44
20490;BMP280;10403;54.092;12.122;2022-08-21T12:47:43;101647.06;;;25.51
20490;BMP280;10403;54.092;12.122;2022-08-21T12:50:20;101647.44;;;25.59
20490;BMP280;10403;54.092;12.122;2022-08-21T12:53:09;101638.38;;;25.62
20490;BMP280;10403;54.092;12.122;2022-08-21T12:55:47;101635.31;;;25.54
20490;BMP280;10403;54.092;12.122;2022-08-21T12:58:23;101636.81;;;25.58
20490;BMP280;10403;54.092;12.122;2022-08-21T13:01:05;101640.44;;;25.57
20490;BMP280;10403;54.092;12.122;2022-08-21T13:03:36;101641.31;;;25.57
20490;BMP280;10403;54.092;12.122;2022-08-21T13:06:05;101638.94;;;25.53
20490;BMP280;10403;54.092;12.122;2022-08-21T13:08:35;101625.34;;;25.41
20490;BMP280;10403;54.092;12.122;2022-08-21T13:11:10;101630.69;;;25.41
20490;BMP280;10403;54.092;12.122;2022-08-21T13:13:42;101629.75;;;25.42
20490;BMP280;10403;54.092;12.122;2022-08-21T13:16:26;101627.06;;;25.42
20490;BMP280;10403;54.092;12.122;2022-08-21T13:19:06;101627.25;;;25.39
20490;BMP280;10403;54.092;12.122;2022-08-21T13:21:43;101621.88;;;25.39
20490;BMP280;10403;54.092;12.122;2022-08-21T13:27:27;101619.44;;;25.36
20490;BMP280;10403;54.092;12.122;2022-08-21T13:30:19;101609.16;;;25.29
20490;BMP280;10403;54.092;12.122;2022-08-21T13:32:54;101617.69;;;25.35
20490;BMP280;10403;54.092;12.122;2022-08-21T13:35:35;101613.47;;;25.31
20490;BMP280;10403;54.092;12.122;2022-08-21T13:38:05;101589.72;;;25.11
20490;BMP280;10403;54.092;12.122;2022-08-21T13:40:56;101615.00;;;25.21
20490;BMP280;10403;54.092;12.122;2022-08-21T13:43:33;101612.72;;;25.15
20490;BMP280;10403;54.092;12.122;2022-08-21T13:46:07;101613.84;;;25.11
20490;BMP280;10403;54.092;12.122;2022-08-21T13:48:41;101613.28;;;25.06
20490;BMP280;10403;54.092;12.122;2022-08-21T13:51:10;101616.69;;;25.08
20490;BMP280;10403;54.092;12.122;2022-08-21T13:53:50;101616.69;;;25.08
20490;BMP280;10403;54.092;12.122;2022-08-21T13:56:43;101607.06;;;25.05
20490;BMP280;10403;54.092;12.122;2022-08-21T13:59:11;101607.34;;;25.15
20490;BMP280;10403;54.092;12.122;2022-08-21T14:02:19;101608.88;;;25.19
20490;BMP280;10403;54.092;12.122;2022-08-21T14:05:00;101594.34;;;25.23
20490;BMP280;10403;54.092;12.122;2022-08-21T14:07:40;101601.22;;;25.27
20490;BMP280;10403;54.092;12.122;2022-08-21T14:10:21;101604.66;;;25.29
20490;BMP280;10403;54.092;12.122;2022-08-21T14:12:55;101592.63;;;25.22
20490;BMP280;10403;54.092;12.122;2022-08-21T14:15:29;101596.25;;;25.21
20490;BMP280;10403;54.092;12.122;2022-08-21T14:18:16;101612.31;;;25.21
20490;BMP280;10403;54.092;12.122;2022-08-21T14:20:45;101601.91;;;25.17
20490;BMP280;10403;54.092;12.122;2022-08-21T14:23:26;101596.81;;;25.12
20490;BMP280;10403;54.092;12.122;2022-08-21T14:26:00;101596.81;;;25.12
20490;BMP280;10403;54.092;12.122;2022-08-21T14:28:39;101602.00;;;25.15
20490;BMP280;10403;54.092;12.122;2022-08-21T14:31:16;101594.91;;;25.14
20490;BMP280;10403;54.092;12.122;2022-08-21T14:33:45;101605.25;;;25.20
20490;BMP280;10403;54.092;12.122;2022-08-21T14:36:12;101600.66;;;25.22
20490;BMP280;10403;54.092;12.122;2022-08-21T14:38:40;101600.66;;;25.22
20490;BMP280;10403;54.092;12.122;2022-08-21T14:41:18;101605.25;;;25.20
20490;BMP280;10403;54.092;12.122;2022-08-21T14:43:46;101601.78;;;25.18
20490;BMP280;10403;54.092;12.122;2022-08-21T14:46:30;101605.91;;;25.24
20490;BMP280;10403;54.092;12.122;2022-08-21T14:48:58;101597.97;;;25.22
20490;BMP280;10403;54.092;12.122;2022-08-21T14:51:26;101601.50;;;25.37
20490;BMP280;10403;54.092;12.122;2022-08-21T14:53:53;101591.47;;;25.40
20490;BMP280;10403;54.092;12.122;2022-08-21T14:56:20;101581.63;;;25.41
20490;BMP280;10403;54.092;12.122;2022-08-21T14:58:50;101595.38;;;25.49
20490;BMP280;10403;54.092;12.122;2022-08-21T15:01:21;101603.50;;;25.48
20490;BMP280;10403;54.092;12.122;2022-08-21T15:03:49;101587.75;;;25.43
20490;BMP280;10403;54.092;12.122;2022-08-21T15:06:17;101598.16;;;25.48
20490;BMP280;10403;54.092;12.122;2022-08-21T15:08:51;101599.09;;;25.47
20490;BMP280;10403;54.092;12.122;2022-08-21T15:11:21;101600.09;;;25.46
20490;BMP280;10403;54.092;12.122;2022-08-21T15:14:22;101591.28;;;25.43
20490;BMP280;10403;54.092;12.122;2022-08-21T15:16:51;101590.25;;;25.46
20490;BMP280;10403;54.092;12.122;2022-08-21T15:19:19;101582.06;;;25.48
20490;BMP280;10403;54.092;12.122;2022-08-21T15:21:46;101590.03;;;25.49
20490;BMP280;10403;54.092;12.122;2022-08-21T15:24:14;101583.91;;;25.47
20490;BMP280;10403;54.092;12.122;2022-08-21T15:26:43;101592.06;;;25.46
20490;BMP280;10403;54.092;12.122;2022-08-21T15:29:10;101585.34;;;25.38